sensor_id;sensor_type;location;lat;lon;timestamp;temperature;humidity
52963;DHT22;38827;53.024;6.596;2023-04-06T00:01:55;3.30;58.00
52963;DHT22;38827;53.024;6.596;2023-04-06T00:04:23;3.30;58.00
52963;DHT22;38827;53.024;6.596;2023-04-06T00:06:49;3.30;58.10
52963;DHT22;38827;53.024;6.596;2023-04-06T00:09:15;3.30;58.10
52963;DHT22;38827;53.024;6.596;2023-04-06T00:11:40;3.20;58.00
52963;DHT22;38827;53.024;6.596;2023-04-06T00:14:06;3.20;58.10
52963;DHT22;38827;53.024;6.596;2023-04-06T00:16:32;3.20;58.10
52963;DHT22;38827;53.024;6.596;2023-04-06T00:18:58;3.20;58.00
52963;DHT22;38827;53.024;6.596;2023-04-06T00:21:23;3.20;58.10
52963;DHT22;38827;53.024;6.596;2023-04-06T00:23:51;3.10;58.10
52963;DHT22;38827;53.024;6.596;2023-04-06T00:26:17;3.10;58.20
52963;DHT22;38827;53.024;6.596;2023-04-06T00:28:42;3.10;58.30
52963;DHT22;38827;53.024;6.596;2023-04-06T00:31:08;3.10;58.40
52963;DHT22;38827;53.024;6.596;2023-04-06T00:33:34;3.10;58.50
52963;DHT22;38827;53.024;6.596;2023-04-06T00:35:59;3.10;58.40
52963;DHT22;38827;53.024;6.596;2023-04-06T00:38:27;3.00;58.40
52963;DHT22;38827;53.024;6.596;2023-04-06T00:40:52;3.00;58.80
52963;DHT22;38827;53.024;6.596;2023-04-06T00:43:18;2.90;59.40
52963;DHT22;38827;53.024;6.596;2023-04-06T00:45:44;2.90;58.80
52963;DHT22;38827;53.024;6.596;2023-04-06T00:48:10;2.90;59.00
52963;DHT22;38827;53.024;6.596;2023-04-06T00:50:36;2.90;59.20
52963;DHT22;38827;53.024;6.596;2023-04-06T00:53:01;2.80;59.30
52963;DHT22;38827;53.024;6.596;2023-04-06T00:55:30;2.80;59.50
52963;DHT22;38827;53.024;6.596;2023-04-06T00:58:01;2.80;59.70
52963;DHT22;38827;53.024;6.596;2023-04-06T01:00:30;2.80;59.90
52963;DHT22;38827;53.024;6.596;2023-04-06T01:02:56;2.70;60.00
52963;DHT22;38827;53.024;6.596;2023-04-06T01:05:21;2.70;60.00
52963;DHT22;38827;53.024;6.596;2023-04-06T01:07:47;2.70;60.10
52963;DHT22;38827;53.024;6.596;2023-04-06T01:10:23;2.70;60.30
52963;DHT22;38827;53.024;6.596;2023-04-06T01:12:49;2.70;60.50
52963;DHT22;38827;53.024;6.596;2023-04-06T01:15:18;2.60;60.50
52963;DHT22;38827;53.024;6.596;2023-04-06T01:17:45;2.60;60.50
52963;DHT22;38827;53.024;6.596;2023-04-06T01:20:10;2.60;60.50
52963;DHT22;38827;53.024;6.596;2023-04-06T01:22:36;2.60;60.50
52963;DHT22;38827;53.024;6.596;2023-04-06T01:25:02;2.50;60.60
52963;DHT22;38827;53.024;6.596;2023-04-06T01:27:28;2.50;60.70
52963;DHT22;38827;53.024;6.596;2023-04-06T01:29:55;2.40;60.90
52963;DHT22;38827;53.024;6.596;2023-04-06T01:32:20;2.40;61.20
52963;DHT22;38827;53.024;6.596;2023-04-06T01:34:46;2.30;60.70
52963;DHT22;38827;53.024;6.596;2023-04-06T01:37:12;2.30;60.80
52963;DHT22;38827;53.024;6.596;2023-04-06T01:39:38;2.30;60.80
52963;DHT22;38827;53.024;6.596;2023-04-06T01:42:03;2.30;60.90
52963;DHT22;38827;53.024;6.596;2023-04-06T01:44:30;2.30;60.80
52963;DHT22;38827;53.024;6.596;2023-04-06T01:46:56;2.20;61.00
52963;DHT22;38827;53.024;6.596;2023-04-06T01:49:22;2.20;61.00
52963;DHT22;38827;53.024;6.596;2023-04-06T01:51:48;2.20;61.20
52963;DHT22;38827;53.024;6.596;2023-04-06T01:54:15;2.20;61.20
52963;DHT22;38827;53.024;6.596;2023-04-06T01:56:40;2.10;61.20
52963;DHT22;38827;53.024;6.596;2023-04-06T01:59:06;2.10;61.20
52963;DHT22;38827;53.024;6.596;2023-04-06T02:01:32;2.00;61.40
52963;DHT22;38827;53.024;6.596;2023-04-06T02:03:57;2.00;61.60
52963;DHT22;38827;53.024;6.596;2023-04-06T02:06:23;1.90;61.60
52963;DHT22;38827;53.024;6.596;2023-04-06T02:08:49;1.90;61.70
52963;DHT22;38827;53.024;6.596;2023-04-06T02:11:14;1.80;61.80
52963;DHT22;38827;53.024;6.596;2023-04-06T02:13:40;1.80;62.00
52963;DHT22;38827;53.024;6.596;2023-04-06T02:16:06;1.80;62.20
52963;DHT22;38827;53.024;6.596;2023-04-06T02:18:32;1.80;62.10
52963;DHT22;38827;53.024;6.596;2023-04-06T02:20:59;1.80;62.10
52963;DHT22;38827;53.024;6.596;2023-04-06T02:23:24;1.80;62.20
52963;DHT22;38827;53.024;6.596;2023-04-06T02:25:53;1.80;62.10
52963;DHT22;38827;53.024;6.596;2023-04-06T02:28:19;1.70;62.20
52963;DHT22;38827;53.024;6.596;2023-04-06T02:30:45;1.70;62.30
52963;DHT22;38827;53.024;6.596;2023-04-06T02:33:10;1.70;62.40
52963;DHT22;38827;53.024;6.596;2023-04-06T02:35:36;1.70;62.60
52963;DHT22;38827;53.024;6.596;2023-04-06T02:38:02;1.70;62.80
52963;DHT22;38827;53.024;6.596;2023-04-06T02:40:27;1.70;62.90
52963;DHT22;38827;53.024;6.596;2023-04-06T02:42:53;1.70;62.80
52963;DHT22;38827;53.024;6.596;2023-04-06T02:45:18;1.60;62.90
52963;DHT22;38827;53.024;6.596;2023-04-06T02:47:44;1.60;63.10
52963;DHT22;38827;53.024;6.596;2023-04-06T02:50:10;1.60;62.90
52963;DHT22;38827;53.024;6.596;2023-04-06T02:52:36;1.60;62.70
52963;DHT22;38827;53.024;6.596;2023-04-06T02:55:02;1.60;62.70
52963;DHT22;38827;53.024;6.596;2023-04-06T02:57:28;1.60;62.70
52963;DHT22;38827;53.024;6.596;2023-04-06T02:59:53;1.50;62.80
52963;DHT22;38827;53.024;6.596;2023-04-06T03:02:20;1.50;62.80
52963;DHT22;38827;53.024;6.596;2023-04-06T03:04:47;1.50;62.90
52963;DHT22;38827;53.024;6.596;2023-04-06T03:07:12;1.50;62.90
52963;DHT22;38827;53.024;6.596;2023-04-06T03:09:38;1.50;62.80
52963;DHT22;38827;53.024;6.596;2023-04-06T03:12:04;1.50;62.70
52963;DHT22;38827;53.024;6.596;2023-04-06T03:14:30;1.60;62.60
52963;DHT22;38827;53.024;6.596;2023-04-06T03:16:55;1.60;62.50
52963;DHT22;38827;53.024;6.596;2023-04-06T03:19:21;1.60;62.30
52963;DHT22;38827;53.024;6.596;2023-04-06T03:21:47;1.60;62.20
52963;DHT22;38827;53.024;6.596;2023-04-06T03:24:13;1.60;62.00
52963;DHT22;38827;53.024;6.596;2023-04-06T03:26:39;1.60;62.00
52963;DHT22;38827;53.024;6.596;2023-04-06T03:29:08;1.60;61.80
52963;DHT22;38827;53.024;6.596;2023-04-06T03:31:54;1.60;61.70
52963;DHT22;38827;53.024;6.596;2023-04-06T03:34:23;1.60;61.70
52963;DHT22;38827;53.024;6.596;2023-04-06T03:36:51;1.60;61.60
52963;DHT22;38827;53.024;6.596;2023-04-06T03:39:19;1.60;61.70
52963;DHT22;38827;53.024;6.596;2023-04-06T03:41:50;1.60;61.60
52963;DHT22;38827;53.024;6.596;2023-04-06T03:44:22;1.60;61.70
52963;DHT22;38827;53.024;6.596;2023-04-06T03:47:00;1.60;61.90
52963;DHT22;38827;53.024;6.596;2023-04-06T03:52:19;1.50;62.40
52963;DHT22;38827;53.024;6.596;2023-04-06T03:54:47;1.50;62.30
52963;DHT22;38827;53.024;6.596;2023-04-06T03:57:21;1.50;62.40
52963;DHT22;38827;53.024;6.596;2023-04-06T03:59:50;1.40;62.80
52963;DHT22;38827;53.024;6.596;2023-04-06T04:02:30;1.30;62.50
52963;DHT22;38827;53.024;6.596;2023-04-06T04:04:56;1.30;62.80
52963;DHT22;38827;53.024;6.596;2023-04-06T04:07:22;1.30;62.80
52963;DHT22;38827;53.024;6.596;2023-04-06T04:09:48;1.30;62.90
52963;DHT22;38827;53.024;6.596;2023-04-06T04:12:14;1.30;62.90
52963;DHT22;38827;53.024;6.596;2023-04-06T04:14:42;1.30;62.90
52963;DHT22;38827;53.024;6.596;2023-04-06T04:17:09;1.30;63.00
52963;DHT22;38827;53.024;6.596;2023-04-06T04:19:35;1.30;63.10
52963;DHT22;38827;53.024;6.596;2023-04-06T04:22:01;1.20;63.20
52963;DHT22;38827;53.024;6.596;2023-04-06T04:24:30;1.20;63.10
52963;DHT22;38827;53.024;6.596;2023-04-06T04:26:55;1.20;63.10
52963;DHT22;38827;53.024;6.596;2023-04-06T04:29:22;1.20;63.10
52963;DHT22;38827;53.024;6.596;2023-04-06T04:31:48;1.20;63.10
52963;DHT22;38827;53.024;6.596;2023-04-06T04:34:15;1.20;63.00
52963;DHT22;38827;53.024;6.596;2023-04-06T04:36:41;1.10;63.00
52963;DHT22;38827;53.024;6.596;2023-04-06T04:39:10;1.10;63.10
52963;DHT22;38827;53.024;6.596;2023-04-06T04:41:36;1.10;63.10
52963;DHT22;38827;53.024;6.596;2023-04-06T04:44:02;1.10;63.10
52963;DHT22;38827;53.024;6.596;2023-04-06T04:46:27;1.10;63.10
52963;DHT22;38827;53.024;6.596;2023-04-06T04:48:53;1.10;63.10
52963;DHT22;38827;53.024;6.596;2023-04-06T04:51:19;1.10;63.10
52963;DHT22;38827;53.024;6.596;2023-04-06T04:53:45;1.10;63.00
52963;DHT22;38827;53.024;6.596;2023-04-06T04:56:16;1.10;63.00
52963;DHT22;38827;53.024;6.596;2023-04-06T04:58:53;1.10;63.10
52963;DHT22;38827;53.024;6.596;2023-04-06T05:01:19;1.10;63.20
52963;DHT22;38827;53.024;6.596;2023-04-06T05:06:13;1.50;62.30
52963;DHT22;38827;53.024;6.596;2023-04-06T05:08:39;1.10;63.20
52963;DHT22;38827;53.024;6.596;2023-04-06T05:11:04;1.10;63.20
52963;DHT22;38827;53.024;6.596;2023-04-06T05:13:31;1.10;63.40
52963;DHT22;38827;53.024;6.596;2023-04-06T05:16:00;1.10;63.50
52963;DHT22;38827;53.024;6.596;2023-04-06T05:18:26;1.10;63.50
52963;DHT22;38827;53.024;6.596;2023-04-06T05:20:52;1.10;63.60
52963;DHT22;38827;53.024;6.596;2023-04-06T05:23:18;1.10;63.60
52963;DHT22;38827;53.024;6.596;2023-04-06T05:25:49;1.10;63.50
52963;DHT22;38827;53.024;6.596;2023-04-06T05:28:14;1.20;63.50
52963;DHT22;38827;53.024;6.596;2023-04-06T05:30:42;1.20;63.50
52963;DHT22;38827;53.024;6.596;2023-04-06T05:33:09;1.30;63.40
52963;DHT22;38827;53.024;6.596;2023-04-06T05:35:35;1.30;63.40
52963;DHT22;38827;53.024;6.596;2023-04-06T05:38:00;1.40;63.40
52963;DHT22;38827;53.024;6.596;2023-04-06T05:40:26;1.40;63.50
52963;DHT22;38827;53.024;6.596;2023-04-06T05:42:53;1.50;63.50
52963;DHT22;38827;53.024;6.596;2023-04-06T05:45:19;1.50;63.40
52963;DHT22;38827;53.024;6.596;2023-04-06T05:47:46;1.60;63.40
52963;DHT22;38827;53.024;6.596;2023-04-06T05:50:14;1.60;63.20
52963;DHT22;38827;53.024;6.596;2023-04-06T05:52:43;1.70;63.20
52963;DHT22;38827;53.024;6.596;2023-04-06T05:55:12;1.80;63.20
52963;DHT22;38827;53.024;6.596;2023-04-06T05:57:37;1.80;63.10
52963;DHT22;38827;53.024;6.596;2023-04-06T06:00:05;1.90;63.10
52963;DHT22;38827;53.024;6.596;2023-04-06T06:02:32;2.00;63.00
52963;DHT22;38827;53.024;6.596;2023-04-06T06:04:57;2.00;62.80
52963;DHT22;38827;53.024;6.596;2023-04-06T06:07:28;2.10;62.60
52963;DHT22;38827;53.024;6.596;2023-04-06T06:09:57;2.20;62.50
52963;DHT22;38827;53.024;6.596;2023-04-06T06:12:23;2.30;62.40
52963;DHT22;38827;53.024;6.596;2023-04-06T06:14:49;2.40;62.30
52963;DHT22;38827;53.024;6.596;2023-04-06T06:17:18;2.50;62.20
52963;DHT22;38827;53.024;6.596;2023-04-06T06:19:43;2.60;62.20
52963;DHT22;38827;53.024;6.596;2023-04-06T06:22:09;2.70;62.00
52963;DHT22;38827;53.024;6.596;2023-04-06T06:24:35;2.80;61.80
52963;DHT22;38827;53.024;6.596;2023-04-06T06:27:05;2.90;61.70
52963;DHT22;38827;53.024;6.596;2023-04-06T06:29:37;3.00;61.60
52963;DHT22;38827;53.024;6.596;2023-04-06T06:32:02;3.20;61.40
52963;DHT22;38827;53.024;6.596;2023-04-06T06:34:28;3.30;61.20
52963;DHT22;38827;53.024;6.596;2023-04-06T06:36:54;3.40;61.00
52963;DHT22;38827;53.024;6.596;2023-04-06T06:39:21;3.60;60.90
52963;DHT22;38827;53.024;6.596;2023-04-06T06:41:46;3.70;60.70
52963;DHT22;38827;53.024;6.596;2023-04-06T06:44:15;3.90;60.60
52963;DHT22;38827;53.024;6.596;2023-04-06T06:46:42;4.10;60.40
52963;DHT22;38827;53.024;6.596;2023-04-06T06:49:07;4.20;59.90
52963;DHT22;38827;53.024;6.596;2023-04-06T06:51:34;4.40;59.80
52963;DHT22;38827;53.024;6.596;2023-04-06T06:54:00;4.50;59.40
52963;DHT22;38827;53.024;6.596;2023-04-06T06:56:41;4.70;59.10
52963;DHT22;38827;53.024;6.596;2023-04-06T06:59:07;4.80;58.70
52963;DHT22;38827;53.024;6.596;2023-04-06T07:01:33;5.00;58.30
52963;DHT22;38827;53.024;6.596;2023-04-06T07:03:59;5.20;58.10
52963;DHT22;38827;53.024;6.596;2023-04-06T07:06:26;5.30;58.50
52963;DHT22;38827;53.024;6.596;2023-04-06T07:08:52;5.50;57.60
52963;DHT22;38827;53.024;6.596;2023-04-06T07:11:18;5.70;56.90
52963;DHT22;38827;53.024;6.596;2023-04-06T07:13:43;5.90;56.30
52963;DHT22;38827;53.024;6.596;2023-04-06T07:16:09;6.10;55.60
52963;DHT22;38827;53.024;6.596;2023-04-06T07:18:35;6.30;54.90
52963;DHT22;38827;53.024;6.596;2023-04-06T07:21:02;6.50;54.20
52963;DHT22;38827;53.024;6.596;2023-04-06T07:23:27;6.80;53.60
52963;DHT22;38827;53.024;6.596;2023-04-06T07:25:53;7.00;52.70
52963;DHT22;38827;53.024;6.596;2023-04-06T07:28:20;7.20;52.00
52963;DHT22;38827;53.024;6.596;2023-04-06T07:30:45;7.50;51.60
52963;DHT22;38827;53.024;6.596;2023-04-06T07:33:11;7.90;50.50
52963;DHT22;38827;53.024;6.596;2023-04-06T07:35:37;8.30;49.50
52963;DHT22;38827;53.024;6.596;2023-04-06T07:38:03;8.70;48.70
52963;DHT22;38827;53.024;6.596;2023-04-06T07:40:29;9.20;48.00
52963;DHT22;38827;53.024;6.596;2023-04-06T07:43:01;9.70;46.60
52963;DHT22;38827;53.024;6.596;2023-04-06T07:45:27;10.10;45.10
52963;DHT22;38827;53.024;6.596;2023-04-06T07:47:58;10.50;44.20
52963;DHT22;38827;53.024;6.596;2023-04-06T07:53:21;11.90;41.80
52963;DHT22;38827;53.024;6.596;2023-04-06T07:55:50;11.80;42.40
52963;DHT22;38827;53.024;6.596;2023-04-06T07:58:46;12.30;42.10
52963;DHT22;38827;53.024;6.596;2023-04-06T08:01:34;12.90;40.10
52963;DHT22;38827;53.024;6.596;2023-04-06T08:04:08;13.30;39.40
52963;DHT22;38827;53.024;6.596;2023-04-06T08:06:58;13.80;39.40
52963;DHT22;38827;53.024;6.596;2023-04-06T08:09:51;14.20;38.70
52963;DHT22;38827;53.024;6.596;2023-04-06T08:12:26;14.60;37.70
52963;DHT22;38827;53.024;6.596;2023-04-06T08:15:02;14.80;37.10
52963;DHT22;38827;53.024;6.596;2023-04-06T08:17:50;15.20;36.70
52963;DHT22;38827;53.024;6.596;2023-04-06T08:20:48;15.50;35.40
52963;DHT22;38827;53.024;6.596;2023-04-06T08:23:33;15.80;34.60
52963;DHT22;38827;53.024;6.596;2023-04-06T08:26:11;16.00;34.70
52963;DHT22;38827;53.024;6.596;2023-04-06T08:28:40;16.30;34.10
52963;DHT22;38827;53.024;6.596;2023-04-06T08:31:12;16.50;33.70
52963;DHT22;38827;53.024;6.596;2023-04-06T08:33:51;16.50;33.20
52963;DHT22;38827;53.024;6.596;2023-04-06T08:36:35;16.60;33.10
52963;DHT22;38827;53.024;6.596;2023-04-06T08:39:08;16.80;33.00
52963;DHT22;38827;53.024;6.596;2023-04-06T08:42:21;17.20;32.40
52963;DHT22;38827;53.024;6.596;2023-04-06T08:45:29;17.30;31.90
52963;DHT22;38827;53.024;6.596;2023-04-06T08:48:18;17.60;31.70
52963;DHT22;38827;53.024;6.596;2023-04-06T08:51:02;18.00;31.80
52963;DHT22;38827;53.024;6.596;2023-04-06T08:53:39;18.40;30.60
52963;DHT22;38827;53.024;6.596;2023-04-06T08:56:40;18.50;30.60
52963;DHT22;38827;53.024;6.596;2023-04-06T08:59:12;18.50;30.60
52963;DHT22;38827;53.024;6.596;2023-04-06T09:01:45;18.50;30.40
52963;DHT22;38827;53.024;6.596;2023-04-06T09:04:25;18.60;30.20
52963;DHT22;38827;53.024;6.596;2023-04-06T09:07:00;18.70;30.30
52963;DHT22;38827;53.024;6.596;2023-04-06T09:09:31;18.80;29.70
52963;DHT22;38827;53.024;6.596;2023-04-06T09:12:30;18.80;29.90
52963;DHT22;38827;53.024;6.596;2023-04-06T09:18:06;19.00;29.40
52963;DHT22;38827;53.024;6.596;2023-04-06T09:20:33;18.30;29.70
52963;DHT22;38827;53.024;6.596;2023-04-06T09:23:01;17.60;30.60
52963;DHT22;38827;53.024;6.596;2023-04-06T09:25:32;17.20;31.10
52963;DHT22;38827;53.024;6.596;2023-04-06T09:28:03;16.80;31.40
52963;DHT22;38827;53.024;6.596;2023-04-06T09:30:32;16.40;31.70
52963;DHT22;38827;53.024;6.596;2023-04-06T09:32:58;15.90;32.00
52963;DHT22;38827;53.024;6.596;2023-04-06T09:35:25;15.70;32.40
52963;DHT22;38827;53.024;6.596;2023-04-06T09:37:52;15.60;32.60
52963;DHT22;38827;53.024;6.596;2023-04-06T09:40:19;15.60;32.60
52963;DHT22;38827;53.024;6.596;2023-04-06T09:42:46;15.80;32.40
52963;DHT22;38827;53.024;6.596;2023-04-06T09:45:12;16.00;32.20
52963;DHT22;38827;53.024;6.596;2023-04-06T09:47:40;16.30;31.90
52963;DHT22;38827;53.024;6.596;2023-04-06T09:50:14;16.40;31.70
52963;DHT22;38827;53.024;6.596;2023-04-06T09:52:47;16.30;31.10
52963;DHT22;38827;53.024;6.596;2023-04-06T09:55:21;16.00;31.00
52963;DHT22;38827;53.024;6.596;2023-04-06T09:57:55;15.70;31.20
52963;DHT22;38827;53.024;6.596;2023-04-06T10:00:23;15.50;31.40
52963;DHT22;38827;53.024;6.596;2023-04-06T10:05:43;15.00;32.20
52963;DHT22;38827;53.024;6.596;2023-04-06T10:08:11;14.90;32.70
52963;DHT22;38827;53.024;6.596;2023-04-06T10:10:38;15.00;32.80
52963;DHT22;38827;53.024;6.596;2023-04-06T10:13:04;15.30;32.80
52963;DHT22;38827;53.024;6.596;2023-04-06T10:15:42;15.70;32.50
52963;DHT22;38827;53.024;6.596;2023-04-06T10:18:09;15.90;32.30
52963;DHT22;38827;53.024;6.596;2023-04-06T10:20:51;16.10;32.10
52963;DHT22;38827;53.024;6.596;2023-04-06T10:23:37;16.60;31.60
52963;DHT22;38827;53.024;6.596;2023-04-06T10:26:05;16.90;31.50
52963;DHT22;38827;53.024;6.596;2023-04-06T10:28:33;17.00;31.70
52963;DHT22;38827;53.024;6.596;2023-04-06T10:31:04;17.00;31.80
52963;DHT22;38827;53.024;6.596;2023-04-06T10:33:30;16.90;31.80
52963;DHT22;38827;53.024;6.596;2023-04-06T10:35:56;16.70;31.80
52963;DHT22;38827;53.024;6.596;2023-04-06T10:38:36;16.60;32.00
52963;DHT22;38827;53.024;6.596;2023-04-06T10:41:07;16.50;31.90
52963;DHT22;38827;53.024;6.596;2023-04-06T10:43:34;16.40;32.10
52963;DHT22;38827;53.024;6.596;2023-04-06T10:46:07;16.10;32.10
52963;DHT22;38827;53.024;6.596;2023-04-06T10:48:43;15.80;32.40
52963;DHT22;38827;53.024;6.596;2023-04-06T10:51:12;15.50;32.90
52963;DHT22;38827;53.024;6.596;2023-04-06T10:53:43;15.50;33.10
52963;DHT22;38827;53.024;6.596;2023-04-06T10:56:11;15.90;32.80
52963;DHT22;38827;53.024;6.596;2023-04-06T10:58:37;16.70;32.10
52963;DHT22;38827;53.024;6.596;2023-04-06T11:01:04;17.50;31.30
52963;DHT22;38827;53.024;6.596;2023-04-06T11:03:30;18.00;31.10
52963;DHT22;38827;53.024;6.596;2023-04-06T11:05:57;18.40;30.80
52963;DHT22;38827;53.024;6.596;2023-04-06T11:08:31;18.70;30.30
52963;DHT22;38827;53.024;6.596;2023-04-06T11:11:09;18.70;30.20
52963;DHT22;38827;53.024;6.596;2023-04-06T11:13:55;18.30;30.00
52963;DHT22;38827;53.024;6.596;2023-04-06T11:16:22;17.80;30.30
52963;DHT22;38827;53.024;6.596;2023-04-06T11:21:14;17.50;31.30
52963;DHT22;38827;53.024;6.596;2023-04-06T11:23:39;17.70;31.40
52963;DHT22;38827;53.024;6.596;2023-04-06T11:26:11;18.00;31.20
52963;DHT22;38827;53.024;6.596;2023-04-06T11:28:37;18.60;30.60
52963;DHT22;38827;53.024;6.596;2023-04-06T11:31:03;18.80;30.10
52963;DHT22;38827;53.024;6.596;2023-04-06T11:33:28;18.70;30.10
52963;DHT22;38827;53.024;6.596;2023-04-06T11:35:58;18.60;30.20
52963;DHT22;38827;53.024;6.596;2023-04-06T11:38:24;18.50;30.30
52963;DHT22;38827;53.024;6.596;2023-04-06T11:40:53;18.40;30.30
52963;DHT22;38827;53.024;6.596;2023-04-06T11:43:29;18.40;30.30
52963;DHT22;38827;53.024;6.596;2023-04-06T11:46:03;18.30;30.60
52963;DHT22;38827;53.024;6.596;2023-04-06T11:48:29;18.10;30.90
52963;DHT22;38827;53.024;6.596;2023-04-06T11:50:59;17.70;31.10
52963;DHT22;38827;53.024;6.596;2023-04-06T11:53:31;17.40;31.30
52963;DHT22;38827;53.024;6.596;2023-04-06T11:56:00;16.90;30.70
52963;DHT22;38827;53.024;6.596;2023-04-06T11:58:25;16.40;31.00
52963;DHT22;38827;53.024;6.596;2023-04-06T12:00:52;16.10;31.40
52963;DHT22;38827;53.024;6.596;2023-04-06T12:03:18;15.90;31.30
52963;DHT22;38827;53.024;6.596;2023-04-06T12:05:44;15.70;31.40
52963;DHT22;38827;53.024;6.596;2023-04-06T12:08:09;15.80;31.60
52963;DHT22;38827;53.024;6.596;2023-04-06T12:10:35;15.80;31.50
52963;DHT22;38827;53.024;6.596;2023-04-06T12:13:02;15.90;32.00
52963;DHT22;38827;53.024;6.596;2023-04-06T12:15:28;15.90;32.00
52963;DHT22;38827;53.024;6.596;2023-04-06T12:17:54;15.90;31.80
52963;DHT22;38827;53.024;6.596;2023-04-06T12:20:19;16.00;31.70
52963;DHT22;38827;53.024;6.596;2023-04-06T12:22:45;16.00;31.50
52963;DHT22;38827;53.024;6.596;2023-04-06T12:25:11;16.00;31.30
52963;DHT22;38827;53.024;6.596;2023-04-06T12:27:38;15.90;31.40
52963;DHT22;38827;53.024;6.596;2023-04-06T12:30:04;16.00;31.50
52963;DHT22;38827;53.024;6.596;2023-04-06T12:32:33;16.10;31.70
52963;DHT22;38827;53.024;6.596;2023-04-06T12:34:59;16.00;31.70
52963;DHT22;38827;53.024;6.596;2023-04-06T12:37:26;15.90;31.80
52963;DHT22;38827;53.024;6.596;2023-04-06T12:39:52;15.90;31.80
52963;DHT22;38827;53.024;6.596;2023-04-06T12:42:18;15.90;31.70
52963;DHT22;38827;53.024;6.596;2023-04-06T12:44:44;15.80;31.90
52963;DHT22;38827;53.024;6.596;2023-04-06T12:47:10;15.70;32.10
52963;DHT22;38827;53.024;6.596;2023-04-06T12:49:36;15.80;32.00
52963;DHT22;38827;53.024;6.596;2023-04-06T12:52:02;15.80;32.00
52963;DHT22;38827;53.024;6.596;2023-04-06T12:54:28;15.90;32.10
52963;DHT22;38827;53.024;6.596;2023-04-06T12:57:00;16.00;32.00
52963;DHT22;38827;53.024;6.596;2023-04-06T12:59:26;16.20;32.00
52963;DHT22;38827;53.024;6.596;2023-04-06T13:01:52;16.20;32.10
52963;DHT22;38827;53.024;6.596;2023-04-06T13:04:20;16.30;32.00
52963;DHT22;38827;53.024;6.596;2023-04-06T13:06:46;16.40;31.60
52963;DHT22;38827;53.024;6.596;2023-04-06T13:09:12;16.40;31.70
52963;DHT22;38827;53.024;6.596;2023-04-06T13:11:37;16.40;31.70
52963;DHT22;38827;53.024;6.596;2023-04-06T13:14:04;16.20;31.80
52963;DHT22;38827;53.024;6.596;2023-04-06T13:16:29;16.00;31.90
52963;DHT22;38827;53.024;6.596;2023-04-06T13:18:55;15.80;32.20
52963;DHT22;38827;53.024;6.596;2023-04-06T13:21:21;15.70;32.80
52963;DHT22;38827;53.024;6.596;2023-04-06T13:23:47;15.60;32.90
52963;DHT22;38827;53.024;6.596;2023-04-06T13:26:12;15.60;33.00
52963;DHT22;38827;53.024;6.596;2023-04-06T13:28:42;15.60;33.10
52963;DHT22;38827;53.024;6.596;2023-04-06T13:31:08;15.60;33.20
52963;DHT22;38827;53.024;6.596;2023-04-06T13:33:35;15.70;33.30
52963;DHT22;38827;53.024;6.596;2023-04-06T13:36:00;15.60;33.20
52963;DHT22;38827;53.024;6.596;2023-04-06T13:38:27;15.40;33.50
52963;DHT22;38827;53.024;6.596;2023-04-06T13:40:52;15.20;33.80
52963;DHT22;38827;53.024;6.596;2023-04-06T13:43:18;15.20;34.00
52963;DHT22;38827;53.024;6.596;2023-04-06T13:45:52;15.10;34.20
52963;DHT22;38827;53.024;6.596;2023-04-06T13:48:19;14.90;34.80
52963;DHT22;38827;53.024;6.596;2023-04-06T13:50:58;14.80;35.10
52963;DHT22;38827;53.024;6.596;2023-04-06T13:53:35;14.70;35.20
52963;DHT22;38827;53.024;6.596;2023-04-06T13:56:01;14.60;35.40
52963;DHT22;38827;53.024;6.596;2023-04-06T13:58:27;14.50;35.80
52963;DHT22;38827;53.024;6.596;2023-04-06T14:00:53;14.50;36.00
52963;DHT22;38827;53.024;6.596;2023-04-06T14:03:19;14.40;36.40
52963;DHT22;38827;53.024;6.596;2023-04-06T14:05:45;14.40;36.70
52963;DHT22;38827;53.024;6.596;2023-04-06T14:08:12;14.40;36.90
52963;DHT22;38827;53.024;6.596;2023-04-06T14:10:39;14.30;37.10
52963;DHT22;38827;53.024;6.596;2023-04-06T14:13:06;14.30;37.30
52963;DHT22;38827;53.024;6.596;2023-04-06T14:15:31;14.30;37.40
52963;DHT22;38827;53.024;6.596;2023-04-06T14:17:57;14.30;37.60
52963;DHT22;38827;53.024;6.596;2023-04-06T14:20:23;14.30;37.80
52963;DHT22;38827;53.024;6.596;2023-04-06T14:22:48;14.30;37.90
52963;DHT22;38827;53.024;6.596;2023-04-06T14:25:16;14.30;38.00
52963;DHT22;38827;53.024;6.596;2023-04-06T14:27:43;14.20;38.30
52963;DHT22;38827;53.024;6.596;2023-04-06T14:30:10;14.10;38.40
52963;DHT22;38827;53.024;6.596;2023-04-06T14:32:36;14.00;38.60
52963;DHT22;38827;53.024;6.596;2023-04-06T14:35:06;13.90;39.00
52963;DHT22;38827;53.024;6.596;2023-04-06T14:37:31;13.80;39.40
52963;DHT22;38827;53.024;6.596;2023-04-06T14:39:57;13.70;39.90
52963;DHT22;38827;53.024;6.596;2023-04-06T14:42:23;13.70;40.50
52963;DHT22;38827;53.024;6.596;2023-04-06T14:44:48;13.60;40.80
52963;DHT22;38827;53.024;6.596;2023-04-06T14:47:14;13.60;41.00
52963;DHT22;38827;53.024;6.596;2023-04-06T14:49:47;13.50;41.10
52963;DHT22;38827;53.024;6.596;2023-04-06T14:52:12;13.40;41.50
52963;DHT22;38827;53.024;6.596;2023-04-06T14:54:38;13.20;42.90
52963;DHT22;38827;53.024;6.596;2023-04-06T14:57:04;13.00;41.80
52963;DHT22;38827;53.024;6.596;2023-04-06T15:01:58;13.00;42.10
52963;DHT22;38827;53.024;6.596;2023-04-06T15:04:25;12.70;42.10
52963;DHT22;38827;53.024;6.596;2023-04-06T15:06:52;12.50;42.60
52963;DHT22;38827;53.024;6.596;2023-04-06T15:09:18;12.40;43.00
52963;DHT22;38827;53.024;6.596;2023-04-06T15:11:44;12.40;43.20
52963;DHT22;38827;53.024;6.596;2023-04-06T15:14:09;12.30;43.40
52963;DHT22;38827;53.024;6.596;2023-04-06T15:16:36;12.30;43.70
52963;DHT22;38827;53.024;6.596;2023-04-06T15:19:02;12.20;43.80
52963;DHT22;38827;53.024;6.596;2023-04-06T15:21:27;12.20;44.00
52963;DHT22;38827;53.024;6.596;2023-04-06T15:23:53;12.20;44.20
52963;DHT22;38827;53.024;6.596;2023-04-06T15:26:20;12.10;44.30
52963;DHT22;38827;53.024;6.596;2023-04-06T15:28:46;12.10;44.40
52963;DHT22;38827;53.024;6.596;2023-04-06T15:31:18;12.10;44.70
52963;DHT22;38827;53.024;6.596;2023-04-06T15:33:45;12.10;45.10
52963;DHT22;38827;53.024;6.596;2023-04-06T15:36:27;12.00;45.60
52963;DHT22;38827;53.024;6.596;2023-04-06T15:38:55;12.00;46.70
52963;DHT22;38827;53.024;6.596;2023-04-06T15:41:23;11.80;46.70
52963;DHT22;38827;53.024;6.596;2023-04-06T15:43:53;11.70;47.30
52963;DHT22;38827;53.024;6.596;2023-04-06T15:46:20;11.60;47.90
52963;DHT22;38827;53.024;6.596;2023-04-06T15:48:46;11.60;48.70
52963;DHT22;38827;53.024;6.596;2023-04-06T15:51:20;11.50;49.30
52963;DHT22;38827;53.024;6.596;2023-04-06T15:53:48;11.40;49.80
52963;DHT22;38827;53.024;6.596;2023-04-06T15:56:14;11.20;50.50
52963;DHT22;38827;53.024;6.596;2023-04-06T15:58:40;11.20;51.10
52963;DHT22;38827;53.024;6.596;2023-04-06T16:01:13;11.10;51.60
52963;DHT22;38827;53.024;6.596;2023-04-06T16:03:45;11.10;53.00
52963;DHT22;38827;53.024;6.596;2023-04-06T16:06:11;11.00;53.10